Time;durP1;ratioP1;P1;durP2;ratioP2;P2;SDS_P1;SDS_P2;PMS_P1;PMS_P2;Temp;Humidity;BMP_temperature;BMP_pressure;BME280_temperature;BME280_humidity;BME280_pressure;Samples;Min_cycle;Max_cycle;Signal;HPM_P1;HPM_P2
2022/06/16 00:02:04;;;;;;;;;;;;;;;10.23;92.96;98394.38;1780540;79;20704;-86
2022/06/16 00:04:30;;;;;;;;;;;;;;;10.25;92.41;98395.73;1746300;80;20191;-85
2022/06/16 00:06:56;;;;;;;;;;;;;;;10.26;91.48;98394.67;1779672;80;21084;-85
2022/06/16 00:09:23;;;;;;;;;;;;;;;10.31;90.62;98393.85;1781868;80;20241;-84
2022/06/16 00:11:49;;;;;;;;;;;;;;;10.31;90.43;98392.50;1781409;80;20863;-85
2022/06/16 00:14:15;;;;;;;;;;;;;;;10.33;90.41;98391.67;1782463;80;20175;-84
2022/06/16 00:16:41;;;;;;;;;;;;;;;10.34;90.85;98393.30;1782470;79;20144;-85
2022/06/16 00:19:07;;;;;;;;;;;;;;;10.32;91.73;98397.64;1768344;80;21059;-86
2022/06/16 00:21:33;;;;;;;;;;;;;;;10.33;91.15;98393.84;1781948;79;21352;-82
2022/06/16 00:23:59;;;;;;;;;;;;;;;10.31;91.22;98389.78;1755344;80;20229;-83
2022/06/16 00:26:25;;;;;;;;;;;;;;;10.34;89.37;98386.53;1771018;80;20175;-83
2022/06/16 00:28:51;;;;;;;;;;;;;;;10.37;87.72;98391.43;1767643;79;20894;-83
2022/06/16 00:31:19;;;;;;;;;;;;;;;10.31;89.67;98388.44;1782110;80;21092;-85
2022/06/16 00:33:45;;;;;;;;;;;;;;;10.32;89.30;98384.64;1781888;79;20152;-82
2022/06/16 00:36:10;;;;;;;;;;;;;;;10.33;87.25;98380.30;1782149;80;20504;-85
2022/06/16 00:38:36;;;;;;;;;;;;;;;10.33;87.34;98384.91;1781945;80;20266;-84
2022/06/16 00:41:02;;;;;;;;;;;;;;;10.31;86.98;98380.31;1762598;80;20178;-85
2022/06/16 00:43:28;;;;;;;;;;;;;;;10.28;87.25;98382.21;1781774;79;21108;-83
2022/06/16 00:46:02;;;;;;;;;;;;;;;10.25;87.58;98382.19;1779723;80;20171;-85
2022/06/16 00:48:34;;;;;;;;;;;;;;;10.25;87.62;98379.47;1771907;80;20165;-83
2022/06/16 00:51:15;;;;;;;;;;;;;;;10.21;90.08;98383.78;1781244;80;20303;-85
2022/06/16 00:53:41;;;;;;;;;;;;;;;10.24;88.47;98379.75;1781953;79;20179;-85
2022/06/16 00:56:09;;;;;;;;;;;;;;;10.23;88.22;98375.42;1762611;80;20493;-85
2022/06/16 00:58:35;;;;;;;;;;;;;;;10.23;88.64;98371.36;1781765;79;20239;-83
2022/06/16 01:01:01;;;;;;;;;;;;;;;10.22;89.04;98374.61;1756006;80;20180;-85
2022/06/16 01:06:22;;;;;;;;;;;;;;;10.08;90.49;98375.66;1766752;80;20165;-83
2022/06/16 01:08:51;;;;;;;;;;;;;;;9.98;91.34;98369.37;1781801;80;21048;-83
2022/06/16 01:14:20;;;;;;;;;;;;;;;9.85;90.92;98368.00;1782394;80;20216;-83
2022/06/16 01:16:46;;;;;;;;;;;;;;;9.73;91.64;98366.05;1779340;79;20180;-85
2022/06/16 01:19:22;;;;;;;;;;;;;;;9.65;91.87;98360.61;1756998;80;20883;-85
2022/06/16 01:22:01;;;;;;;;;;;;;;;9.59;92.79;98365.21;1781979;80;21107;-83
2022/06/16 01:24:30;;;;;;;;;;;;;;;9.53;92.55;98360.04;1779595;80;20195;-85
2022/06/16 01:27:14;;;;;;;;;;;;;;;9.54;92.26;98363.02;1757382;79;20442;-82
2022/06/16 01:29:51;;;;;;;;;;;;;;;9.49;92.86;98357.06;1772490;80;20188;-83
2022/06/16 01:32:26;;;;;;;;;;;;;;;9.50;92.50;98351.92;1772489;80;20203;-82
2022/06/16 01:35:19;;;;;;;;;;;;;;;9.48;93.01;98354.59;1782161;80;21916;-83
2022/06/16 01:38:01;;;;;;;;;;;;;;;9.45;92.17;98353.23;1767870;80;20163;-82
2022/06/16 01:40:46;;;;;;;;;;;;;;;9.40;92.67;98351.04;1767077;80;20341;-85
2022/06/16 01:43:31;;;;;;;;;;;;;;;9.36;92.81;98354.83;1779105;80;20989;-82
2022/06/16 01:46:03;;;;;;;;;;;;;;;9.32;93.39;98351.84;1761835;80;20166;-83
2022/06/16 01:48:29;;;;;;;;;;;;;;;9.30;92.79;98349.11;1763715;79;21030;-86
2022/06/16 01:51:01;;;;;;;;;;;;;;;9.27;93.02;98355.86;1762049;80;20176;-83
2022/06/16 01:53:36;;;;;;;;;;;;;;;9.21;93.86;98347.44;1749458;79;20486;-83
2022/06/16 01:56:09;;;;;;;;;;;;;;;9.20;93.83;98346.36;1764292;80;20617;-86
2022/06/16 01:58:35;;;;;;;;;;;;;;;9.18;94.22;98349.88;1781758;79;20501;-82
2022/06/16 02:01:03;;;;;;;;;;;;;;;9.12;93.79;98344.96;1781932;80;21085;-82
2022/06/16 02:03:32;;;;;;;;;;;;;;;9.09;94.44;98341.44;1749861;80;20468;-82
2022/06/16 02:06:01;;;;;;;;;;;;;;;9.05;94.26;98343.02;1775941;80;20220;-82
2022/06/16 02:08:36;;;;;;;;;;;;;;;9.03;93.58;98340.59;1781596;80;20641;-85
2022/06/16 02:11:04;;;;;;;;;;;;;;;8.99;93.65;98339.50;1781775;80;20215;-82
2022/06/16 02:13:36;;;;;;;;;;;;;;;8.95;93.77;98342.43;1781725;80;21141;-85
2022/06/16 02:16:05;;;;;;;;;;;;;;;8.89;93.90;98343.50;1782001;80;20429;-85
2022/06/16 02:18:36;;;;;;;;;;;;;;;8.92;93.22;98343.50;1781901;79;20196;-82
2022/06/16 02:21:22;;;;;;;;;;;;;;;8.91;94.42;98346.75;1777684;80;20635;-83
2022/06/16 02:23:48;;;;;;;;;;;;;;;8.93;94.16;98351.88;1778879;80;20163;-83
2022/06/16 02:26:15;;;;;;;;;;;;;;;8.93;93.93;98350.00;1782160;80;21011;-83
2022/06/16 02:28:43;;;;;;;;;;;;;;;8.90;94.71;98357.28;1781610;79;20187;-82
2022/06/16 02:31:25;;;;;;;;;;;;;;;8.90;94.84;98351.88;1782106;80;20457;-83
2022/06/16 02:34:24;;;;;;;;;;;;;;;8.92;94.44;98356.48;1755296;80;20207;-84
2022/06/16 02:37:11;;;;;;;;;;;;;;;8.93;95.02;98357.29;1767172;80;20215;-83
2022/06/16 02:39:47;;;;;;;;;;;;;;;8.92;94.37;98361.07;1781757;80;21617;-86
2022/06/16 02:42:22;;;;;;;;;;;;;;;8.94;93.82;98357.56;1781899;80;20195;-83
2022/06/16 02:45:01;;;;;;;;;;;;;;;8.93;94.82;98352.70;1781701;80;20251;-85
2022/06/16 02:47:48;;;;;;;;;;;;;;;8.95;94.38;98353.24;1781052;80;20203;-85
2022/06/16 02:50:47;;;;;;;;;;;;;;;8.93;95.05;98347.83;1781985;80;20215;-85
2022/06/16 02:53:45;;;;;;;;;;;;;;;8.90;95.62;98343.77;1767378;80;21094;-83
2022/06/16 02:56:12;;;;;;;;;;;;;;;8.87;94.62;98351.56;1729911;81;20273;-82
2022/06/16 02:58:39;;;;;;;;;;;;;;;8.81;95.57;98345.34;1778014;80;20927;-85
2022/06/16 03:01:05;;;;;;;;;;;;;;;8.74;96.13;98351.50;1780761;80;20633;-85
2022/06/16 03:03:33;;;;;;;;;;;;;;;8.76;96.54;98347.98;1781658;80;20203;-83
2022/06/16 03:05:59;;;;;;;;;;;;;;;8.80;96.04;98349.08;1778001;80;21047;-83
2022/06/16 03:08:26;;;;;;;;;;;;;;;8.81;95.90;98350.73;1771191;80;20187;-85
2022/06/16 03:10:52;;;;;;;;;;;;;;;8.86;95.20;98354.81;1779705;80;20199;-83
2022/06/16 03:13:22;;;;;;;;;;;;;;;8.93;95.55;98360.80;1740730;80;20642;-86
2022/06/16 03:15:49;;;;;;;;;;;;;;;8.99;95.45;98363.83;1781288;80;20212;-83
2022/06/16 03:18:15;;;;;;;;;;;;;;;9.04;95.27;98354.37;1767543;80;21015;-83
2022/06/16 03:20:41;;;;;;;;;;;;;;;9.13;95.25;98356.05;1781702;80;20206;-83
2022/06/16 03:23:07;;;;;;;;;;;;;;;9.27;94.90;98362.63;1769425;79;20527;-86
2022/06/16 03:25:33;;;;;;;;;;;;;;;9.43;93.05;98358.11;1756661;80;20198;-86
2022/06/16 03:27:59;;;;;;;;;;;;;;;9.62;92.41;98357.09;1775820;80;20224;-84
2022/06/16 03:30:25;;;;;;;;;;;;;;;9.85;92.03;98357.18;1781447;80;21059;-86
2022/06/16 03:32:50;;;;;;;;;;;;;;;10.09;91.00;98352.91;1781365;80;20297;-85
2022/06/16 03:35:16;;;;;;;;;;;;;;;10.31;90.51;98351.87;1770955;80;20189;-83
2022/06/16 03:37:42;;;;;;;;;;;;;;;10.49;89.80;98343.20;1759983;79;20212;-83
2022/06/16 03:40:11;;;;;;;;;;;;;;;10.58;89.45;98348.89;1773229;80;20270;-86
2022/06/16 03:42:36;;;;;;;;;;;;;;;10.64;89.12;98348.63;1756995;80;21158;-86
2022/06/16 03:45:03;;;;;;;;;;;;;;;10.70;89.28;98343.48;1781841;80;20249;-83
2022/06/16 03:47:28;;;;;;;;;;;;;;;10.71;89.44;98345.64;1781680;80;20216;-82
2022/06/16 03:49:54;;;;;;;;;;;;;;;10.70;89.21;98343.48;1781733;80;20206;-85
2022/06/16 03:52:20;;;;;;;;;;;;;;;10.72;89.56;98341.30;1781774;80;20218;-83
2022/06/16 03:54:46;;;;;;;;;;;;;;;10.76;89.76;98344.81;1743114;80;21216;-84
2022/06/16 03:57:11;;;;;;;;;;;;;;;10.74;89.65;98349.16;1766919;80;20226;-86
2022/06/16 03:59:37;;;;;;;;;;;;;;;10.74;89.93;98343.19;1782232;80;20214;-86
2022/06/16 04:02:03;;;;;;;;;;;;;;;10.69;90.24;98347.28;1762468;79;20245;-83
2022/06/16 04:04:29;;;;;;;;;;;;;;;10.73;89.65;98344.28;1781908;80;20168;-83
2022/06/16 04:06:55;;;;;;;;;;;;;;;10.73;89.82;98340.76;1782002;79;21847;-82
2022/06/16 04:09:21;;;;;;;;;;;;;;;10.73;89.90;98333.98;1781447;80;20285;-84
2022/06/16 04:11:46;;;;;;;;;;;;;;;10.97;89.53;98336.94;1779336;80;20202;-83
2022/06/16 04:14:13;;;;;;;;;;;;;;;11.16;88.73;98335.25;1756257;80;20175;-83
2022/06/16 04:16:40;;;;;;;;;;;;;;;11.36;88.55;98340.34;1782602;79;20188;-83
2022/06/16 04:19:07;;;;;;;;;;;;;;;11.42;88.20;98336.52;1782027;80;21121;-86
2022/06/16 04:21:38;;;;;;;;;;;;;;;11.46;88.15;98335.70;1781671;80;20191;-84
2022/06/16 04:24:04;;;;;;;;;;;;;;;11.48;88.44;98330.00;1771673;80;20167;-84
2022/06/16 04:26:30;;;;;;;;;;;;;;;11.56;88.19;98334.30;1782095;80;20187;-84
2022/06/16 04:28:56;;;;;;;;;;;;;;;11.62;88.31;98336.43;1767311;80;20277;-83
2022/06/16 04:31:21;;;;;;;;;;;;;;;11.81;88.01;98330.69;1747401;82;21087;-83
2022/06/16 04:33:47;;;;;;;;;;;;;;;11.83;87.55;98331.20;1777739;80;20190;-83
2022/06/16 04:36:13;;;;;;;;;;;;;;;11.84;87.51;98327.95;1774354;80;20260;-86
2022/06/16 04:38:39;;;;;;;;;;;;;;;11.92;87.27;98330.62;1739643;80;20712;-85
2022/06/16 04:41:05;;;;;;;;;;;;;;;11.92;87.27;98326.00;1759588;80;20179;-83
2022/06/16 04:43:31;;;;;;;;;;;;;;;11.99;87.33;98326.50;1754007;80;21035;-85
2022/06/16 04:45:58;;;;;;;;;;;;;;;12.20;86.87;98320.92;1762871;80;20283;-84
2022/06/16 04:48:25;;;;;;;;;;;;;;;12.34;86.92;98323.27;1780950;80;20239;-84
2022/06/16 04:50:50;;;;;;;;;;;;;;;12.52;86.61;98321.77;1779945;80;20196;-85
2022/06/16 04:53:16;;;;;;;;;;;;;;;12.70;85.51;98316.43;1767746;80;20187;-84
2022/06/16 04:55:42;;;;;;;;;;;;;;;12.93;84.99;98327.66;1781738;80;21308;-86
2022/06/16 04:58:08;;;;;;;;;;;;;;;13.11;84.86;98312.50;1781627;79;20310;-83
2022/06/16 05:00:37;;;;;;;;;;;;;;;13.28;84.34;98316.97;1781606;80;20194;-83
2022/06/16 05:03:03;;;;;;;;;;;;;;;13.46;83.12;98316.20;1781638;80;20169;-83
2022/06/16 05:05:29;;;;;;;;;;;;;;;13.74;83.53;98321.83;1782120;80;20169;-86
2022/06/16 05:07:55;;;;;;;;;;;;;;;13.99;82.33;98318.75;1780130;80;21768;-86
2022/06/16 05:10:20;;;;;;;;;;;;;;;14.33;83.09;98313.06;1782145;80;20191;-86
2022/06/16 05:12:46;;;;;;;;;;;;;;;14.58;81.63;98312.43;1761999;80;20217;-86
2022/06/16 05:15:12;;;;;;;;;;;;;;;14.50;80.74;98316.64;1774389;80;20426;-86
2022/06/16 05:17:38;;;;;;;;;;;;;;;14.78;79.21;98312.62;1781736;79;20183;-83
2022/06/16 05:20:04;;;;;;;;;;;;;;;14.94;78.52;98308.52;1782143;80;21137;-86
2022/06/16 05:22:30;;;;;;;;;;;;;;;15.22;77.41;98308.81;1774141;80;20188;-85
2022/06/16 05:24:55;;;;;;;;;;;;;;;15.23;77.63;98300.06;1781996;80;20198;-86
2022/06/16 05:27:21;;;;;;;;;;;;;;;15.13;77.67;98301.64;1766104;80;20190;-83
2022/06/16 05:29:47;;;;;;;;;;;;;;;15.35;78.44;98296.81;1779680;80;20203;-84
2022/06/16 05:32:13;;;;;;;;;;;;;;;15.56;77.35;98293.13;1782037;79;20982;-83
2022/06/16 05:34:39;;;;;;;;;;;;;;;15.80;76.79;98295.88;1781800;80;20174;-84
2022/06/16 05:37:05;;;;;;;;;;;;;;;16.00;76.87;98285.63;1767211;80;20234;-85
2022/06/16 05:39:30;;;;;;;;;;;;;;;16.28;76.54;98284.39;1781453;80;20719;-84
2022/06/16 05:41:56;;;;;;;;;;;;;;;16.54;75.08;98290.05;1762512;79;20226;-84
2022/06/16 05:44:22;;;;;;;;;;;;;;;16.74;75.48;98290.67;1781822;80;21825;-85
2022/06/16 05:46:47;;;;;;;;;;;;;;;16.81;73.80;98288.30;1762731;80;20655;-86
2022/06/16 05:49:13;;;;;;;;;;;;;;;16.71;74.44;98283.91;1781756;80;20347;-86
2022/06/16 05:51:39;;;;;;;;;;;;;;;16.54;73.74;98283.77;1762456;79;20366;-84
2022/06/16 05:54:05;;;;;;;;;;;;;;;16.81;74.52;98285.57;1752911;80;20229;-84
2022/06/16 05:56:31;;;;;;;;;;;;;;;16.98;73.80;98281.55;1772536;79;21174;-84
2022/06/16 05:58:57;;;;;;;;;;;;;;;17.06;73.82;98276.67;1781828;80;20202;-85
2022/06/16 06:01:23;;;;;;;;;;;;;;;17.29;73.73;98268.39;1771083;80;20228;-87
2022/06/16 06:03:49;;;;;;;;;;;;;;;17.41;71.84;98271.31;1753273;80;20178;-87
2022/06/16 06:06:14;;;;;;;;;;;;;;;17.58;72.23;98276.84;1767882;80;20241;-86
2022/06/16 06:17:06;;;;;;;;;;;;;;;18.21;69.88;98261.78;1732881;82;20155;-84
2022/06/16 06:19:32;;;;;;;;;;;;;;;18.32;68.33;98269.91;1747312;82;20165;-84
2022/06/16 06:22:09;;;;;;;;;;;;;;;18.53;68.56;98267.29;1747084;82;21780;-87
2022/06/16 06:24:46;;;;;;;;;;;;;;;18.63;68.78;98259.31;1724416;82;20134;-86
2022/06/16 06:27:18;;;;;;;;;;;;;;;18.85;69.19;98257.72;1715191;82;20190;-84
2022/06/16 06:29:44;;;;;;;;;;;;;;;19.12;67.57;98259.80;1762165;80;20200;-84
2022/06/16 06:32:10;;;;;;;;;;;;;;;19.10;64.35;98262.88;1772289;80;20198;-84
2022/06/16 06:34:36;;;;;;;;;;;;;;;19.38;65.58;98252.23;1744905;81;21101;-84
2022/06/16 06:37:02;;;;;;;;;;;;;;;19.65;64.96;98251.55;1781846;79;20162;-85
2022/06/16 06:39:28;;;;;;;;;;;;;;;19.92;65.82;98254.38;1781979;80;20194;-84
2022/06/16 06:41:54;;;;;;;;;;;;;;;20.09;64.54;98254.80;1767386;80;20180;-87
2022/06/16 06:44:19;;;;;;;;;;;;;;;20.18;63.78;98252.21;1781982;80;20190;-84
2022/06/16 06:46:45;;;;;;;;;;;;;;;20.40;63.64;98246.89;1779624;79;20619;-84
2022/06/16 06:49:12;;;;;;;;;;;;;;;20.52;60.50;98244.23;1770643;80;20234;-87
2022/06/16 06:51:37;;;;;;;;;;;;;;;20.71;60.20;98242.33;1767216;80;20235;-87
2022/06/16 06:54:03;;;;;;;;;;;;;;;21.00;62.45;98240.53;1739839;80;20212;-88
2022/06/16 06:56:30;;;;;;;;;;;;;;;21.27;61.77;98236.33;1752731;79;20528;-84
2022/06/16 06:58:56;;;;;;;;;;;;;;;21.40;59.21;98236.56;1781972;80;21055;-85
2022/06/16 07:01:22;;;;;;;;;;;;;;;21.59;58.74;98228.50;1773307;80;20192;-84
2022/06/16 07:03:49;;;;;;;;;;;;;;;21.88;59.39;98228.00;1777795;80;20217;-84
2022/06/16 07:06:16;;;;;;;;;;;;;;;22.01;60.40;98226.80;1762132;80;20199;-84
2022/06/16 07:08:42;;;;;;;;;;;;;;;22.10;60.79;98221.97;1780637;80;20184;-88
2022/06/16 07:11:08;;;;;;;;;;;;;;;22.39;60.25;98217.23;1781910;80;20849;-84
2022/06/16 07:13:34;;;;;;;;;;;;;;;22.69;58.59;98209.37;1781507;80;20199;-85
2022/06/16 07:16:00;;;;;;;;;;;;;;;22.78;52.95;98197.58;1762787;80;20269;-88
2022/06/16 07:18:26;;;;;;;;;;;;;;;22.94;56.76;98203.14;1778874;79;20159;-88
2022/06/16 07:20:51;;;;;;;;;;;;;;;23.25;56.21;98195.42;1765657;80;20191;-85
2022/06/16 07:23:18;;;;;;;;;;;;;;;23.52;55.79;98194.47;1776575;80;21835;-88
2022/06/16 07:25:46;;;;;;;;;;;;;;;23.61;54.37;98193.72;1763095;80;20185;-85
2022/06/16 07:28:12;;;;;;;;;;;;;;;23.75;53.93;98190.44;1778819;80;20948;-89
2022/06/16 07:30:38;;;;;;;;;;;;;;;23.91;52.16;98188.41;1782112;80;20437;-88
2022/06/16 07:33:03;;;;;;;;;;;;;;;24.10;53.57;98189.61;1767664;79;20159;-88
2022/06/16 07:35:29;;;;;;;;;;;;;;;24.32;51.34;98188.08;1770726;80;21123;-88
2022/06/16 07:37:55;;;;;;;;;;;;;;;24.49;51.98;98180.69;1735261;80;20274;-88
2022/06/16 07:40:21;;;;;;;;;;;;;;;24.70;51.18;98181.67;1751787;80;20174;-88
2022/06/16 07:42:47;;;;;;;;;;;;;;;24.89;50.62;98176.06;1767421;79;20341;-85
2022/06/16 07:45:13;;;;;;;;;;;;;;;25.13;48.50;98173.52;1771827;80;20399;-88
2022/06/16 07:47:39;;;;;;;;;;;;;;;25.22;50.52;98170.48;1758080;80;21216;-89
2022/06/16 07:50:08;;;;;;;;;;;;;;;25.53;50.42;98172.11;1781486;80;20754;-89
2022/06/16 07:52:34;;;;;;;;;;;;;;;25.79;49.26;98175.47;1781813;80;20446;-88
2022/06/16 07:55:00;;;;;;;;;;;;;;;25.62;44.03;98166.28;1781672;80;20385;-85
2022/06/16 07:57:27;;;;;;;;;;;;;;;25.82;46.52;98168.59;1754971;80;20210;-89
2022/06/16 07:59:54;;;;;;;;;;;;;;;26.29;45.14;98176.88;1743497;80;21087;-85
2022/06/16 08:02:20;;;;;;;;;;;;;;;26.46;42.57;98172.73;1781484;79;20179;-89
2022/06/16 08:04:46;;;;;;;;;;;;;;;27.18;42.55;98173.62;1742560;80;20465;-85
2022/06/16 08:07:12;;;;;;;;;;;;;;;27.30;42.26;98167.53;1781821;80;20246;-84
2022/06/16 08:09:39;;;;;;;;;;;;;;;27.62;41.79;98164.36;1781588;80;20209;-89
2022/06/16 08:12:08;;;;;;;;;;;;;;;28.01;39.16;98160.98;1782675;79;21045;-88
2022/06/16 08:14:37;;;;;;;;;;;;;;;28.13;39.38;98162.03;1781327;80;20156;-89
2022/06/16 08:17:08;;;;;;;;;;;;;;;28.30;37.56;98157.73;1774173;80;20182;-89
2022/06/16 08:19:35;;;;;;;;;;;;;;;28.91;37.73;98160.05;1777509;80;20171;-86
2022/06/16 08:22:01;;;;;;;;;;;;;;;29.43;38.18;98156.22;1781787;79;20184;-89
2022/06/16 08:24:26;;;;;;;;;;;;;;;29.66;36.20;98157.99;1781950;80;21122;-89
2022/06/16 08:26:52;;;;;;;;;;;;;;;30.00;33.95;98154.69;1781970;79;20182;-85
2022/06/16 08:29:18;;;;;;;;;;;;;;;29.66;33.13;98151.62;1781619;80;20212;-86
2022/06/16 08:31:44;;;;;;;;;;;;;;;29.64;34.69;98151.99;1781441;80;20250;-88
2022/06/16 08:34:10;;;;;;;;;;;;;;;30.09;33.51;98145.89;1751532;80;20225;-89
2022/06/16 08:36:36;;;;;;;;;;;;;;;30.28;31.77;98157.36;1762661;80;21167;-85
2022/06/16 08:39:06;;;;;;;;;;;;;;;30.83;32.34;98151.63;1781328;80;20167;-85
2022/06/16 08:41:59;;;;;;;;;;;;;;;31.03;32.65;98150.49;1742775;82;20189;-90
2022/06/16 08:44:41;;;;;;;;;;;;;;;31.43;30.16;98132.13;1746504;80;20582;-85
2022/06/16 08:47:30;;;;;;;;;;;;;;;31.93;27.36;98132.38;1767838;79;20159;-85
2022/06/16 08:50:09;;;;;;;;;;;;;;;31.38;29.20;98134.79;1782084;80;21160;-86
2022/06/16 08:52:38;;;;;;;;;;;;;;;31.43;29.85;98130.12;1781038;79;20218;-86
2022/06/16 08:55:10;;;;;;;;;;;;;;;32.00;30.14;98143.50;1781710;80;20161;-86
2022/06/16 08:57:55;;;;;;;;;;;;;;;32.00;27.28;98142.10;1778141;79;20471;-85
2022/06/16 09:00:30;;;;;;;;;;;;;;;32.27;26.34;98139.95;1740009;80;20187;-86
2022/06/16 09:03:04;;;;;;;;;;;;;;;32.69;23.35;98142.77;1740140;80;21147;-89
2022/06/16 09:05:52;;;;;;;;;;;;;;;31.91;24.25;98141.81;1740227;80;20136;-89
2022/06/16 09:08:22;;;;;;;;;;;;;;;32.96;26.77;98144.16;1764271;80;20236;-87
2022/06/16 09:11:10;;;;;;;;;;;;;;;33.71;23.41;98138.63;1760422;80;20215;-90
2022/06/16 09:13:48;;;;;;;;;;;;;;;33.74;25.11;98141.97;1783717;80;20141;-89
2022/06/16 09:16:28;;;;;;;;;;;;;;;34.49;22.49;98146.05;1773755;80;21266;-90
2022/06/16 09:19:15;;;;;;;;;;;;;;;34.13;24.22;98129.16;1774720;80;20156;-90
2022/06/16 09:21:51;;;;;;;;;;;;;;;34.00;22.87;98129.02;1781878;80;20176;-90
2022/06/16 09:24:39;;;;;;;;;;;;;;;34.50;23.40;98128.73;1780071;80;20611;-87
2022/06/16 09:27:24;;;;;;;;;;;;;;;35.00;23.87;98124.75;1780641;80;20183;-90
2022/06/16 09:30:02;;;;;;;;;;;;;;;35.75;24.10;98121.36;1725431;80;21164;-87
2022/06/16 09:32:55;;;;;;;;;;;;;;;36.01;21.02;98115.20;1767769;79;20181;-87
2022/06/16 09:35:36;;;;;;;;;;;;;;;36.87;21.97;98116.80;1766617;81;20186;-90
2022/06/16 09:38:08;;;;;;;;;;;;;;;36.43;21.43;98115.95;1727676;80;20514;-91
2022/06/16 09:40:42;;;;;;;;;;;;;;;35.41;20.57;98124.72;1766288;80;20155;-90
2022/06/16 09:43:24;;;;;;;;;;;;;;;35.84;20.31;98120.09;1777718;79;21884;-88
2022/06/16 09:45:53;;;;;;;;;;;;;;;36.61;21.30;98122.44;1779391;80;20379;-87
2022/06/16 09:48:22;;;;;;;;;;;;;;;36.37;20.04;98109.91;1744913;80;20222;-87
2022/06/16 09:50:53;;;;;;;;;;;;;;;36.82;20.81;98108.23;1765607;80;20164;-87
2022/06/16 09:53:25;;;;;;;;;;;;;;;36.99;20.25;98108.30;1778974;79;20168;-87
2022/06/16 09:56:17;;;;;;;;;;;;;;;37.28;19.90;98105.30;1781007;80;21036;-90
2022/06/16 09:58:49;;;;;;;;;;;;;;;36.90;20.32;98108.20;1780382;80;20207;-90
2022/06/16 10:01:17;;;;;;;;;;;;;;;37.16;18.43;98108.93;1769014;80;20422;-87
2022/06/16 10:03:53;;;;;;;;;;;;;;;37.03;18.62;98113.84;1758160;79;20197;-90
2022/06/16 10:06:25;;;;;;;;;;;;;;;36.69;18.50;98118.14;1760666;80;20583;-90
2022/06/16 10:08:55;;;;;;;;;;;;;;;36.41;20.83;98106.38;1764622;80;20598;-89
2022/06/16 10:11:26;;;;;;;;;;;;;;;37.14;19.54;98105.78;1757883;80;20140;-90
2022/06/16 10:14:04;;;;;;;;;;;;;;;36.98;18.40;98104.52;1772822;80;20207;-87
2022/06/16 10:16:34;;;;;;;;;;;;;;;36.40;19.43;98097.71;1774549;80;20169;-90
2022/06/16 10:18:59;;;;;;;;;;;;;;;36.66;18.52;98089.44;1780381;80;20302;-90
2022/06/16 10:21:25;;;;;;;;;;;;;;;36.51;19.61;98096.77;1782931;80;21089;-87
2022/06/16 10:23:53;;;;;;;;;;;;;;;36.83;18.23;98087.86;1757425;80;20257;-90
2022/06/16 10:26:19;;;;;;;;;;;;;;;36.18;20.06;98097.58;1767450;80;20196;-89
2022/06/16 10:28:52;;;;;;;;;;;;;;;36.73;20.19;98095.44;1744364;80;20670;-90
2022/06/16 10:31:37;;;;;;;;;;;;;;;35.41;20.42;98099.99;1735685;82;20166;-87
2022/06/16 10:34:03;;;;;;;;;;;;;;;34.31;20.83;98097.22;1781186;80;21873;-88
2022/06/16 10:36:29;;;;;;;;;;;;;;;35.79;20.06;98090.25;1782046;80;20801;-89
2022/06/16 10:39:07;;;;;;;;;;;;;;;37.34;20.23;98099.07;1770463;80;20309;-90
2022/06/16 10:41:41;;;;;;;;;;;;;;;37.82;20.44;98096.34;1782020;79;20160;-90
2022/06/16 10:44:10;;;;;;;;;;;;;;;39.08;19.93;98102.26;1782070;80;20220;-87
2022/06/16 10:46:36;;;;;;;;;;;;;;;39.58;16.89;98097.94;1780085;79;21031;-87
2022/06/16 10:49:04;;;;;;;;;;;;;;;40.08;18.09;98095.02;1768065;80;20164;-87
2022/06/16 10:51:30;;;;;;;;;;;;;;;40.12;18.45;98099.91;1738450;79;20129;-87
2022/06/16 10:54:14;;;;;;;;;;;;;;;39.86;18.13;98102.94;1743927;80;20801;-90
2022/06/16 10:56:40;;;;;;;;;;;;;;;38.76;19.50;98101.40;1781586;79;20165;-87
2022/06/16 10:59:18;;;;;;;;;;;;;;;37.55;16.83;98092.67;1782078;80;21083;-86
2022/06/16 11:01:50;;;;;;;;;;;;;;;35.48;19.07;98094.95;1774530;80;20456;-89
2022/06/16 11:04:25;;;;;;;;;;;;;;;34.79;20.98;98092.91;1771825;80;20156;-86
2022/06/16 11:06:53;;;;;;;;;;;;;;;34.53;21.02;98090.52;1776906;80;20743;-86
2022/06/16 11:09:23;;;;;;;;;;;;;;;33.94;21.44;98086.59;1772730;80;20156;-89
2022/06/16 11:11:54;;;;;;;;;;;;;;;32.99;22.17;98075.19;1782055;79;21064;-88
2022/06/16 11:14:40;;;;;;;;;;;;;;;31.98;23.07;98079.30;1767744;80;20133;-89
2022/06/16 11:17:09;;;;;;;;;;;;;;;31.32;24.29;98077.66;1781354;80;20164;-89
2022/06/16 11:19:38;;;;;;;;;;;;;;;31.01;25.14;98084.34;1767489;80;20649;-89
2022/06/16 11:22:06;;;;;;;;;;;;;;;31.03;24.23;98089.73;1780734;80;20207;-86
2022/06/16 11:24:33;;;;;;;;;;;;;;;31.27;24.50;98080.91;1779578;80;21072;-88
2022/06/16 11:27:10;;;;;;;;;;;;;;;31.56;25.10;98081.40;1781416;79;20160;-88
2022/06/16 11:29:36;;;;;;;;;;;;;;;31.62;24.27;98078.91;1743898;80;20197;-86
2022/06/16 11:32:10;;;;;;;;;;;;;;;31.35;25.63;98073.23;1739868;80;20232;-89
2022/06/16 11:34:35;;;;;;;;;;;;;;;31.12;25.57;98073.25;1775916;80;20278;-86
2022/06/16 11:37:12;;;;;;;;;;;;;;;31.14;23.76;98072.83;1780438;79;21855;-87
2022/06/16 11:40:04;;;;;;;;;;;;;;;31.18;24.77;98072.17;1781770;80;20262;-88
2022/06/16 11:43:07;;;;;;;;;;;;;;;31.81;23.72;98066.33;1766243;79;20202;-86
2022/06/16 11:45:53;;;;;;;;;;;;;;;32.20;23.23;98066.55;1755209;80;20169;-86
2022/06/16 11:48:25;;;;;;;;;;;;;;;32.08;23.56;98058.73;1780939;79;20181;-87
2022/06/16 11:51:05;;;;;;;;;;;;;;;33.71;23.54;98054.95;1781146;80;21607;-86
2022/06/16 11:53:43;;;;;;;;;;;;;;;34.40;20.70;98055.25;1762291;79;20132;-86
2022/06/16 11:56:24;;;;;;;;;;;;;;;35.99;21.43;98052.05;1765929;80;20156;-87
2022/06/16 11:59:20;;;;;;;;;;;;;;;36.45;20.80;98052.02;1707520;81;20193;-86
2022/06/16 12:01:48;;;;;;;;;;;;;;;36.28;20.63;98049.13;1751069;81;20212;-88
2022/06/16 12:04:37;;;;;;;;;;;;;;;34.20;21.19;98048.89;1771435;80;21117;-86
2022/06/16 12:07:24;;;;;;;;;;;;;;;33.05;23.21;98043.98;1781511;79;20223;-89
2022/06/16 12:10:13;;;;;;;;;;;;;;;32.27;24.22;98045.43;1782296;80;20215;-86
2022/06/16 12:12:43;;;;;;;;;;;;;;;31.68;25.06;98040.23;1768801;80;20170;-89
2022/06/16 12:15:15;;;;;;;;;;;;;;;30.90;26.61;98042.49;1782521;80;20537;-88
2022/06/16 12:17:57;;;;;;;;;;;;;;;30.44;27.28;98036.69;1781136;79;21056;-86
2022/06/16 12:20:29;;;;;;;;;;;;;;;29.83;27.66;98034.87;1762149;80;20208;-88
2022/06/16 12:23:14;;;;;;;;;;;;;;;29.44;27.90;98026.64;1781751;79;20211;-86
2022/06/16 12:25:47;;;;;;;;;;;;;;;29.82;27.44;98026.27;1781836;80;20418;-88
2022/06/16 12:28:25;;;;;;;;;;;;;;;30.04;26.41;98025.55;1767592;80;20204;-86
2022/06/16 12:30:58;;;;;;;;;;;;;;;29.99;26.84;98018.39;1781905;80;21150;-86
2022/06/16 12:33:28;;;;;;;;;;;;;;;29.71;27.04;98019.36;1748191;79;20167;-86
2022/06/16 12:35:57;;;;;;;;;;;;;;;29.15;27.87;98017.58;1759749;80;20331;-86
2022/06/16 12:38:27;;;;;;;;;;;;;;;29.00;29.19;98016.02;1723213;82;20162;-86
2022/06/16 12:40:54;;;;;;;;;;;;;;;28.65;29.32;98013.46;1747076;82;20465;-89
2022/06/16 12:43:27;;;;;;;;;;;;;;;28.52;30.12;98003.91;1781898;79;21044;-88
2022/06/16 12:46:08;;;;;;;;;;;;;;;30.97;28.84;97994.08;1781729;80;20164;-86
2022/06/16 12:48:54;;;;;;;;;;;;;;;32.76;24.36;97991.17;1782155;79;20171;-89
2022/06/16 12:51:21;;;;;;;;;;;;;;;32.08;22.30;97990.70;1772293;80;20559;-86
2022/06/16 12:53:57;;;;;;;;;;;;;;;31.26;23.37;97987.57;1763656;80;20191;-89
2022/06/16 12:56:34;;;;;;;;;;;;;;;31.83;25.07;97988.26;1761298;80;21169;-86
2022/06/16 12:59:04;;;;;;;;;;;;;;;31.11;26.56;97991.92;1781862;80;20243;-89
2022/06/16 13:01:30;;;;;;;;;;;;;;;30.78;26.59;97980.89;1781741;79;20212;-86
2022/06/16 13:04:14;;;;;;;;;;;;;;;30.39;26.55;97970.64;1755671;80;20253;-88
2022/06/16 13:06:44;;;;;;;;;;;;;;;30.86;26.77;97969.02;1775521;80;20207;-89
2022/06/16 13:09:11;;;;;;;;;;;;;;;31.38;27.30;97962.64;1781843;80;21154;-89
2022/06/16 13:11:53;;;;;;;;;;;;;;;30.96;27.01;97958.92;1766155;80;20167;-88
2022/06/16 13:14:33;;;;;;;;;;;;;;;30.78;27.05;97958.52;1767737;80;20176;-86
2022/06/16 13:17:02;;;;;;;;;;;;;;;30.58;27.33;97952.67;1780183;79;20459;-86
2022/06/16 13:19:40;;;;;;;;;;;;;;;30.14;27.29;97947.09;1750746;81;20161;-86
2022/06/16 13:22:07;;;;;;;;;;;;;;;29.68;28.75;97949.59;1766321;80;21742;-88